sensor_id;sensor_type;location;lat;lon;timestamp;P1;durP1;ratioP1;P2;durP2;ratioP2
70301;SDS011;57706;56.326;43.882;2022-08-11T00:00:06;5.97;;;5.05;;
70301;SDS011;57706;56.326;43.882;2022-08-11T00:02:53;8.15;;;5.32;;
70301;SDS011;57706;56.326;43.882;2022-08-11T00:05:20;8.73;;;5.40;;
70301;SDS011;57706;56.326;43.882;2022-08-11T00:07:50;6.18;;;5.03;;
70301;SDS011;57706;56.326;43.882;2022-08-11T00:10:23;9.93;;;5.05;;
70301;SDS011;57706;56.326;43.882;2022-08-11T00:12:59;10.02;;;5.30;;
70301;SDS011;57706;56.326;43.882;2022-08-11T00:15:37;9.13;;;5.35;;
70301;SDS011;57706;56.326;43.882;2022-08-11T00:18:09;8.00;;;5.13;;
70301;SDS011;57706;56.326;43.882;2022-08-11T00:20:38;7.25;;;4.70;;
70301;SDS011;57706;56.326;43.882;2022-08-11T00:23:12;8.27;;;5.40;;
70301;SDS011;57706;56.326;43.882;2022-08-11T00:25:44;8.15;;;5.75;;
70301;SDS011;57706;56.326;43.882;2022-08-11T00:28:29;11.98;;;4.88;;
70301;SDS011;57706;56.326;43.882;2022-08-11T00:33:56;7.72;;;5.10;;
70301;SDS011;57706;56.326;43.882;2022-08-11T00:36:25;6.85;;;4.53;;
70301;SDS011;57706;56.326;43.882;2022-08-11T00:39:03;6.28;;;5.18;;
70301;SDS011;57706;56.326;43.882;2022-08-11T00:41:33;8.82;;;5.90;;
70301;SDS011;57706;56.326;43.882;2022-08-11T01:12:49;7.53;;;6.15;;
70301;SDS011;57706;56.326;43.882;2022-08-11T01:40:51;8.02;;;6.10;;
70301;SDS011;57706;56.326;43.882;2022-08-11T01:57:34;8.63;;;6.10;;
70301;SDS011;57706;56.326;43.882;2022-08-11T02:00:07;8.00;;;6.05;;
70301;SDS011;57706;56.326;43.882;2022-08-11T02:19:46;10.57;;;6.05;;
70301;SDS011;57706;56.326;43.882;2022-08-11T02:25:54;15.10;;;6.30;;
70301;SDS011;57706;56.326;43.882;2022-08-11T02:28:28;13.10;;;6.25;;
70301;SDS011;57706;56.326;43.882;2022-08-11T02:33:47;5.72;;;4.97;;
70301;SDS011;57706;56.326;43.882;2022-08-11T02:36:24;9.70;;;5.95;;
70301;SDS011;57706;56.326;43.882;2022-08-11T02:39:07;9.18;;;6.47;;
70301;SDS011;57706;56.326;43.882;2022-08-11T02:44:50;13.73;;;5.65;;
70301;SDS011;57706;56.326;43.882;2022-08-11T02:50:34;7.07;;;5.22;;
70301;SDS011;57706;56.326;43.882;2022-08-11T02:53:18;7.65;;;5.07;;
70301;SDS011;57706;56.326;43.882;2022-08-11T03:01:41;8.50;;;5.20;;
70301;SDS011;57706;56.326;43.882;2022-08-11T03:04:17;11.73;;;6.10;;
70301;SDS011;57706;56.326;43.882;2022-08-11T03:07:24;8.15;;;5.30;;
70301;SDS011;57706;56.326;43.882;2022-08-11T03:15:41;8.15;;;5.00;;
70301;SDS011;57706;56.326;43.882;2022-08-11T03:19:10;22.38;;;19.98;;
70301;SDS011;57706;56.326;43.882;2022-08-11T03:24:17;10.68;;;5.38;;
70301;SDS011;57706;56.326;43.882;2022-08-11T03:30:00;5.75;;;4.20;;
70301;SDS011;57706;56.326;43.882;2022-08-11T03:38:44;11.55;;;5.00;;
70301;SDS011;57706;56.326;43.882;2022-08-11T03:44:14;8.00;;;4.07;;
70301;SDS011;57706;56.326;43.882;2022-08-11T04:46:58;5.00;;;3.90;;
70301;SDS011;57706;56.326;43.882;2022-08-11T04:56:04;6.60;;;4.30;;
70301;SDS011;57706;56.326;43.882;2022-08-11T05:13:24;5.80;;;3.75;;
70301;SDS011;57706;56.326;43.882;2022-08-11T05:16:17;7.43;;;3.70;;
70301;SDS011;57706;56.326;43.882;2022-08-11T05:19:16;5.82;;;4.22;;
70301;SDS011;57706;56.326;43.882;2022-08-11T05:22:02;9.60;;;4.43;;
70301;SDS011;57706;56.326;43.882;2022-08-11T05:24:55;9.52;;;4.13;;
70301;SDS011;57706;56.326;43.882;2022-08-11T05:27:44;8.65;;;4.55;;
70301;SDS011;57706;56.326;43.882;2022-08-11T05:30:36;6.97;;;4.47;;
70301;SDS011;57706;56.326;43.882;2022-08-11T05:36:37;9.13;;;4.40;;
70301;SDS011;57706;56.326;43.882;2022-08-11T05:39:12;10.88;;;4.95;;
70301;SDS011;57706;56.326;43.882;2022-08-11T05:41:59;8.10;;;4.72;;
70301;SDS011;57706;56.326;43.882;2022-08-11T05:44:46;13.88;;;4.65;;
70301;SDS011;57706;56.326;43.882;2022-08-11T05:47:33;10.55;;;4.38;;
70301;SDS011;57706;56.326;43.882;2022-08-11T05:50:20;7.85;;;4.20;;
70301;SDS011;57706;56.326;43.882;2022-08-11T05:53:09;11.27;;;3.90;;
70301;SDS011;57706;56.326;43.882;2022-08-11T05:55:55;6.65;;;4.03;;
70301;SDS011;57706;56.326;43.882;2022-08-11T05:58:43;8.95;;;3.95;;
70301;SDS011;57706;56.326;43.882;2022-08-11T06:01:24;8.23;;;4.07;;
70301;SDS011;57706;56.326;43.882;2022-08-11T06:04:15;8.50;;;4.50;;
70301;SDS011;57706;56.326;43.882;2022-08-11T06:06:55;7.07;;;4.47;;
70301;SDS011;57706;56.326;43.882;2022-08-11T06:09:29;8.57;;;3.80;;
70301;SDS011;57706;56.326;43.882;2022-08-11T06:11:59;9.77;;;4.22;;
70301;SDS011;57706;56.326;43.882;2022-08-11T06:14:28;10.23;;;4.00;;
70301;SDS011;57706;56.326;43.882;2022-08-11T06:16:57;7.38;;;3.92;;
70301;SDS011;57706;56.326;43.882;2022-08-11T06:19:35;11.38;;;4.30;;
70301;SDS011;57706;56.326;43.882;2022-08-11T06:22:03;6.15;;;4.10;;
70301;SDS011;57706;56.326;43.882;2022-08-11T06:24:30;5.35;;;3.28;;
70301;SDS011;57706;56.326;43.882;2022-08-11T06:26:59;11.48;;;4.35;;
70301;SDS011;57706;56.326;43.882;2022-08-11T06:29:26;7.13;;;4.00;;
70301;SDS011;57706;56.326;43.882;2022-08-11T06:31:54;9.13;;;4.25;;
70301;SDS011;57706;56.326;43.882;2022-08-11T06:43:09;6.57;;;3.83;;
70301;SDS011;57706;56.326;43.882;2022-08-11T06:48:11;7.28;;;3.92;;
70301;SDS011;57706;56.326;43.882;2022-08-11T06:50:41;9.00;;;4.28;;
70301;SDS011;57706;56.326;43.882;2022-08-11T06:53:53;8.18;;;3.67;;
70301;SDS011;57706;56.326;43.882;2022-08-11T06:56:40;5.70;;;4.00;;
70301;SDS011;57706;56.326;43.882;2022-08-11T06:59:25;5.10;;;4.07;;
70301;SDS011;57706;56.326;43.882;2022-08-11T07:02:12;7.57;;;3.85;;
70301;SDS011;57706;56.326;43.882;2022-08-11T07:04:51;6.82;;;3.90;;
70301;SDS011;57706;56.326;43.882;2022-08-11T07:10:27;6.97;;;3.83;;
70301;SDS011;57706;56.326;43.882;2022-08-11T07:13:16;5.30;;;3.55;;
70301;SDS011;57706;56.326;43.882;2022-08-11T07:18:32;6.53;;;4.00;;
70301;SDS011;57706;56.326;43.882;2022-08-11T07:24:20;3.75;;;2.78;;
70301;SDS011;57706;56.326;43.882;2022-08-11T07:27:13;6.47;;;3.78;;
70301;SDS011;57706;56.326;43.882;2022-08-11T07:30:17;5.70;;;3.58;;
70301;SDS011;57706;56.326;43.882;2022-08-11T07:32:45;11.63;;;3.72;;
70301;SDS011;57706;56.326;43.882;2022-08-11T07:35:19;9.95;;;3.70;;
70301;SDS011;57706;56.326;43.882;2022-08-11T07:37:49;6.03;;;3.13;;
70301;SDS011;57706;56.326;43.882;2022-08-11T07:40:47;10.10;;;3.70;;
70301;SDS011;57706;56.326;43.882;2022-08-11T07:43:14;5.22;;;3.83;;
70301;SDS011;57706;56.326;43.882;2022-08-11T07:45:41;5.30;;;3.00;;
70301;SDS011;57706;56.326;43.882;2022-08-11T07:48:28;5.15;;;3.42;;
70301;SDS011;57706;56.326;43.882;2022-08-11T07:51:33;8.52;;;3.67;;
70301;SDS011;57706;56.326;43.882;2022-08-11T07:54:19;8.23;;;3.83;;
70301;SDS011;57706;56.326;43.882;2022-08-11T07:56:45;10.30;;;3.75;;
70301;SDS011;57706;56.326;43.882;2022-08-11T07:59:30;8.95;;;3.72;;
70301;SDS011;57706;56.326;43.882;2022-08-11T08:02:15;8.68;;;3.88;;
70301;SDS011;57706;56.326;43.882;2022-08-11T08:05:00;3.80;;;2.80;;
70301;SDS011;57706;56.326;43.882;2022-08-11T08:07:45;14.25;;;3.42;;
70301;SDS011;57706;56.326;43.882;2022-08-11T08:10:30;3.65;;;2.83;;
70301;SDS011;57706;56.326;43.882;2022-08-11T08:13:33;13.73;;;3.00;;
70301;SDS011;57706;56.326;43.882;2022-08-11T08:16:19;5.15;;;3.33;;
70301;SDS011;57706;56.326;43.882;2022-08-11T08:19:05;6.93;;;3.35;;
70301;SDS011;57706;56.326;43.882;2022-08-11T08:21:31;6.90;;;3.20;;
70301;SDS011;57706;56.326;43.882;2022-08-11T08:23:58;7.00;;;3.67;;
70301;SDS011;57706;56.326;43.882;2022-08-11T08:26:24;9.93;;;3.47;;
70301;SDS011;57706;56.326;43.882;2022-08-11T08:29:09;4.57;;;3.30;;
70301;SDS011;57706;56.326;43.882;2022-08-11T08:31:54;7.35;;;2.80;;
70301;SDS011;57706;56.326;43.882;2022-08-11T08:34:21;6.72;;;2.58;;
70301;SDS011;57706;56.326;43.882;2022-08-11T08:36:49;5.82;;;2.47;;
70301;SDS011;57706;56.326;43.882;2022-08-11T08:39:19;4.57;;;3.53;;
70301;SDS011;57706;56.326;43.882;2022-08-11T08:41:46;6.53;;;2.60;;
70301;SDS011;57706;56.326;43.882;2022-08-11T08:44:38;9.60;;;3.65;;
70301;SDS011;57706;56.326;43.882;2022-08-11T08:47:09;5.20;;;3.30;;
70301;SDS011;57706;56.326;43.882;2022-08-11T08:49:40;9.55;;;3.13;;
70301;SDS011;57706;56.326;43.882;2022-08-11T08:52:21;4.38;;;2.22;;
70301;SDS011;57706;56.326;43.882;2022-08-11T08:54:53;4.97;;;2.30;;
70301;SDS011;57706;56.326;43.882;2022-08-11T08:57:21;6.53;;;2.97;;
70301;SDS011;57706;56.326;43.882;2022-08-11T08:59:52;8.57;;;3.25;;
70301;SDS011;57706;56.326;43.882;2022-08-11T09:02:22;3.42;;;3.10;;
70301;SDS011;57706;56.326;43.882;2022-08-11T09:04:49;3.65;;;2.63;;
70301;SDS011;57706;56.326;43.882;2022-08-11T09:07:17;5.15;;;2.97;;
70301;SDS011;57706;56.326;43.882;2022-08-11T09:09:51;4.30;;;2.22;;
70301;SDS011;57706;56.326;43.882;2022-08-11T09:12:38;2.33;;;2.13;;
70301;SDS011;57706;56.326;43.882;2022-08-11T09:15:07;3.38;;;2.08;;
70301;SDS011;57706;56.326;43.882;2022-08-11T09:22:34;4.72;;;2.95;;
70301;SDS011;57706;56.326;43.882;2022-08-11T09:25:21;4.05;;;2.40;;
70301;SDS011;57706;56.326;43.882;2022-08-11T09:28:28;6.15;;;2.45;;
70301;SDS011;57706;56.326;43.882;2022-08-11T09:30:55;4.95;;;2.58;;
70301;SDS011;57706;56.326;43.882;2022-08-11T09:33:26;4.65;;;3.13;;
70301;SDS011;57706;56.326;43.882;2022-08-11T09:35:54;4.10;;;2.92;;
70301;SDS011;57706;56.326;43.882;2022-08-11T09:38:21;5.22;;;2.53;;
70301;SDS011;57706;56.326;43.882;2022-08-11T09:41:08;27.65;;;4.20;;
70301;SDS011;57706;56.326;43.882;2022-08-11T09:43:37;18.73;;;3.58;;
70301;SDS011;57706;56.326;43.882;2022-08-11T09:46:25;8.20;;;2.53;;
70301;SDS011;57706;56.326;43.882;2022-08-11T09:48:53;15.13;;;2.63;;
70301;SDS011;57706;56.326;43.882;2022-08-11T09:51:23;28.42;;;4.30;;
70301;SDS011;57706;56.326;43.882;2022-08-11T09:54:08;15.05;;;2.97;;
70301;SDS011;57706;56.326;43.882;2022-08-11T09:56:35;6.28;;;2.05;;
70301;SDS011;57706;56.326;43.882;2022-08-11T09:59:38;12.25;;;3.28;;
70301;SDS011;57706;56.326;43.882;2022-08-11T10:02:05;5.57;;;3.35;;
70301;SDS011;57706;56.326;43.882;2022-08-11T10:04:36;6.30;;;2.30;;
70301;SDS011;57706;56.326;43.882;2022-08-11T10:07:03;3.88;;;2.17;;
70301;SDS011;57706;56.326;43.882;2022-08-11T10:09:51;11.52;;;2.75;;
70301;SDS011;57706;56.326;43.882;2022-08-11T10:12:26;2.88;;;2.60;;
70301;SDS011;57706;56.326;43.882;2022-08-11T10:15:15;2.42;;;1.73;;
70301;SDS011;57706;56.326;43.882;2022-08-11T10:18:03;4.13;;;3.05;;
70301;SDS011;57706;56.326;43.882;2022-08-11T10:24:08;3.10;;;2.70;;
70301;SDS011;57706;56.326;43.882;2022-08-11T10:26:54;7.13;;;3.20;;
70301;SDS011;57706;56.326;43.882;2022-08-11T10:29:22;3.17;;;2.88;;
70301;SDS011;57706;56.326;43.882;2022-08-11T10:32:11;3.20;;;2.42;;
70301;SDS011;57706;56.326;43.882;2022-08-11T10:34:58;3.17;;;2.78;;
70301;SDS011;57706;56.326;43.882;2022-08-11T10:37:26;5.25;;;2.10;;
70301;SDS011;57706;56.326;43.882;2022-08-11T10:39:58;3.55;;;2.00;;
70301;SDS011;57706;56.326;43.882;2022-08-11T10:42:25;4.03;;;2.47;;
70301;SDS011;57706;56.326;43.882;2022-08-11T10:45:10;9.27;;;2.65;;
70301;SDS011;57706;56.326;43.882;2022-08-11T10:47:56;2.63;;;2.40;;
70301;SDS011;57706;56.326;43.882;2022-08-11T10:50:23;6.57;;;2.70;;
70301;SDS011;57706;56.326;43.882;2022-08-11T10:53:08;2.95;;;2.75;;
70301;SDS011;57706;56.326;43.882;2022-08-11T10:55:54;4.60;;;1.85;;
70301;SDS011;57706;56.326;43.882;2022-08-11T10:58:40;12.80;;;8.90;;
70301;SDS011;57706;56.326;43.882;2022-08-11T11:03:59;5.05;;;2.55;;
70301;SDS011;57706;56.326;43.882;2022-08-11T11:09:27;4.40;;;2.55;;
70301;SDS011;57706;56.326;43.882;2022-08-11T11:14:47;3.58;;;1.80;;
70301;SDS011;57706;56.326;43.882;2022-08-11T11:17:36;2.65;;;2.33;;
70301;SDS011;57706;56.326;43.882;2022-08-11T11:20:27;5.10;;;2.83;;
70301;SDS011;57706;56.326;43.882;2022-08-11T11:36:53;3.88;;;2.17;;
70301;SDS011;57706;56.326;43.882;2022-08-11T11:39:22;3.42;;;2.25;;
70301;SDS011;57706;56.326;43.882;2022-08-11T11:41:51;7.43;;;2.85;;
70301;SDS011;57706;56.326;43.882;2022-08-11T11:44:19;4.18;;;2.55;;
70301;SDS011;57706;56.326;43.882;2022-08-11T11:46:49;3.22;;;2.10;;
70301;SDS011;57706;56.326;43.882;2022-08-11T11:49:16;3.60;;;2.38;;
70301;SDS011;57706;56.326;43.882;2022-08-11T11:51:46;2.30;;;1.40;;
70301;SDS011;57706;56.326;43.882;2022-08-11T11:54:35;4.07;;;2.10;;
70301;SDS011;57706;56.326;43.882;2022-08-11T11:57:02;2.20;;;2.00;;
70301;SDS011;57706;56.326;43.882;2022-08-11T11:59:49;2.15;;;1.98;;
70301;SDS011;57706;56.326;43.882;2022-08-11T12:02:35;2.78;;;2.13;;
70301;SDS011;57706;56.326;43.882;2022-08-11T12:05:02;2.47;;;2.03;;
70301;SDS011;57706;56.326;43.882;2022-08-11T12:07:29;4.25;;;1.88;;
70301;SDS011;57706;56.326;43.882;2022-08-11T12:10:15;2.53;;;2.00;;
70301;SDS011;57706;56.326;43.882;2022-08-11T12:12:42;2.47;;;2.28;;
70301;SDS011;57706;56.326;43.882;2022-08-11T12:15:28;3.03;;;1.92;;
70301;SDS011;57706;56.326;43.882;2022-08-11T12:17:55;4.32;;;1.70;;
70301;SDS011;57706;56.326;43.882;2022-08-11T12:20:22;3.60;;;2.08;;
70301;SDS011;57706;56.326;43.882;2022-08-11T12:22:49;2.35;;;1.80;;
70301;SDS011;57706;56.326;43.882;2022-08-11T12:25:33;4.85;;;1.83;;
70301;SDS011;57706;56.326;43.882;2022-08-11T12:28:18;2.17;;;1.27;;
70301;SDS011;57706;56.326;43.882;2022-08-11T12:30:52;3.13;;;1.80;;
70301;SDS011;57706;56.326;43.882;2022-08-11T12:33:18;1.95;;;1.75;;
70301;SDS011;57706;56.326;43.882;2022-08-11T12:35:46;2.00;;;1.60;;
70301;SDS011;57706;56.326;43.882;2022-08-11T12:38:16;3.20;;;1.77;;
70301;SDS011;57706;56.326;43.882;2022-08-11T12:40:45;2.13;;;1.80;;
70301;SDS011;57706;56.326;43.882;2022-08-11T12:43:31;1.88;;;1.73;;
70301;SDS011;57706;56.326;43.882;2022-08-11T12:46:32;2.00;;;1.83;;
70301;SDS011;57706;56.326;43.882;2022-08-11T12:49:07;4.15;;;1.92;;
70301;SDS011;57706;56.326;43.882;2022-08-11T12:52:17;3.60;;;2.00;;
70301;SDS011;57706;56.326;43.882;2022-08-11T12:57:17;2.10;;;1.88;;
70301;SDS011;57706;56.326;43.882;2022-08-11T13:00:22;1.73;;;1.60;;
70301;SDS011;57706;56.326;43.882;2022-08-11T13:03:08;4.75;;;1.77;;
70301;SDS011;57706;56.326;43.882;2022-08-11T13:06:13;3.53;;;1.73;;
70301;SDS011;57706;56.326;43.882;2022-08-11T13:08:58;4.30;;;1.63;;
70301;SDS011;57706;56.326;43.882;2022-08-11T13:11:24;4.07;;;1.77;;
70301;SDS011;57706;56.326;43.882;2022-08-11T13:14:10;2.08;;;1.90;;
70301;SDS011;57706;56.326;43.882;2022-08-11T13:16:36;5.78;;;1.42;;
70301;SDS011;57706;56.326;43.882;2022-08-11T13:19:22;1.65;;;1.42;;
70301;SDS011;57706;56.326;43.882;2022-08-11T13:21:48;1.60;;;1.10;;
70301;SDS011;57706;56.326;43.882;2022-08-11T13:24:16;1.20;;;1.20;;
70301;SDS011;57706;56.326;43.882;2022-08-11T13:26:43;10.25;;;1.98;;
70301;SDS011;57706;56.326;43.882;2022-08-11T13:29:10;2.60;;;1.35;;
70301;SDS011;57706;56.326;43.882;2022-08-11T13:31:39;3.65;;;1.33;;
70301;SDS011;57706;56.326;43.882;2022-08-11T13:34:07;7.07;;;1.70;;
70301;SDS011;57706;56.326;43.882;2022-08-11T13:36:34;6.38;;;1.52;;
70301;SDS011;57706;56.326;43.882;2022-08-11T13:39:00;3.08;;;1.27;;
70301;SDS011;57706;56.326;43.882;2022-08-11T13:41:27;3.17;;;1.70;;
70301;SDS011;57706;56.326;43.882;2022-08-11T13:44:09;2.90;;;1.20;;
70301;SDS011;57706;56.326;43.882;2022-08-11T13:46:37;3.40;;;1.40;;
70301;SDS011;57706;56.326;43.882;2022-08-11T13:49:05;5.05;;;1.58;;
70301;SDS011;57706;56.326;43.882;2022-08-11T13:51:35;5.22;;;1.50;;
70301;SDS011;57706;56.326;43.882;2022-08-11T13:54:15;4.65;;;1.55;;
70301;SDS011;57706;56.326;43.882;2022-08-11T13:56:46;2.63;;;1.50;;
70301;SDS011;57706;56.326;43.882;2022-08-11T13:59:16;2.58;;;1.83;;
70301;SDS011;57706;56.326;43.882;2022-08-11T14:04:52;1.90;;;1.20;;
70301;SDS011;57706;56.326;43.882;2022-08-11T14:07:21;2.40;;;1.40;;
70301;SDS011;57706;56.326;43.882;2022-08-11T14:09:56;2.78;;;1.40;;
70301;SDS011;57706;56.326;43.882;2022-08-11T14:12:24;3.75;;;1.67;;
70301;SDS011;57706;56.326;43.882;2022-08-11T14:15:17;3.95;;;1.48;;
70301;SDS011;57706;56.326;43.882;2022-08-11T14:18:00;4.70;;;1.60;;
70301;SDS011;57706;56.326;43.882;2022-08-11T14:20:33;2.88;;;1.50;;
70301;SDS011;57706;56.326;43.882;2022-08-11T14:23:22;2.00;;;1.30;;
70301;SDS011;57706;56.326;43.882;2022-08-11T14:28:44;1.50;;;1.30;;
70301;SDS011;57706;56.326;43.882;2022-08-11T14:31:14;5.28;;;1.58;;
70301;SDS011;57706;56.326;43.882;2022-08-11T14:33:41;4.18;;;1.70;;
70301;SDS011;57706;56.326;43.882;2022-08-11T14:36:08;4.57;;;1.63;;
70301;SDS011;57706;56.326;43.882;2022-08-11T14:38:36;2.13;;;1.40;;
70301;SDS011;57706;56.326;43.882;2022-08-11T14:41:03;2.00;;;1.25;;
70301;SDS011;57706;56.326;43.882;2022-08-11T14:43:49;3.10;;;1.50;;
70301;SDS011;57706;56.326;43.882;2022-08-11T14:46:34;2.95;;;1.50;;
70301;SDS011;57706;56.326;43.882;2022-08-11T14:49:21;5.25;;;1.50;;
70301;SDS011;57706;56.326;43.882;2022-08-11T14:51:47;4.38;;;1.33;;
70301;SDS011;57706;56.326;43.882;2022-08-11T14:54:14;2.00;;;1.58;;
70301;SDS011;57706;56.326;43.882;2022-08-11T14:56:59;3.08;;;1.40;;
70301;SDS011;57706;56.326;43.882;2022-08-11T14:59:27;2.55;;;1.50;;
70301;SDS011;57706;56.326;43.882;2022-08-11T15:01:54;2.42;;;1.40;;
70301;SDS011;57706;56.326;43.882;2022-08-11T15:04:39;2.75;;;1.17;;
70301;SDS011;57706;56.326;43.882;2022-08-11T15:07:05;3.03;;;1.48;;
70301;SDS011;57706;56.326;43.882;2022-08-11T15:09:33;2.17;;;1.33;;
70301;SDS011;57706;56.326;43.882;2022-08-11T15:12:11;2.35;;;1.40;;
70301;SDS011;57706;56.326;43.882;2022-08-11T15:14:45;6.47;;;1.63;;
70301;SDS011;57706;56.326;43.882;2022-08-11T15:17:31;3.55;;;1.55;;
70301;SDS011;57706;56.326;43.882;2022-08-11T15:20:02;7.28;;;1.58;;
70301;SDS011;57706;56.326;43.882;2022-08-11T15:22:49;3.67;;;1.70;;
70301;SDS011;57706;56.326;43.882;2022-08-11T15:25:33;8.75;;;1.92;;
70301;SDS011;57706;56.326;43.882;2022-08-11T15:28:01;2.13;;;1.50;;
70301;SDS011;57706;56.326;43.882;2022-08-11T15:30:48;2.05;;;1.48;;
70301;SDS011;57706;56.326;43.882;2022-08-11T15:33:38;6.32;;;1.80;;
70301;SDS011;57706;56.326;43.882;2022-08-11T15:36:24;2.50;;;1.60;;
70301;SDS011;57706;56.326;43.882;2022-08-11T15:41:47;2.88;;;1.70;;
70301;SDS011;57706;56.326;43.882;2022-08-11T15:44:55;4.43;;;1.80;;
70301;SDS011;57706;56.326;43.882;2022-08-11T15:47:50;4.50;;;1.55;;
70301;SDS011;57706;56.326;43.882;2022-08-11T15:50:24;3.53;;;2.05;;
70301;SDS011;57706;56.326;43.882;2022-08-11T15:52:57;5.55;;;1.33;;
70301;SDS011;57706;56.326;43.882;2022-08-11T15:55:26;6.78;;;1.83;;
70301;SDS011;57706;56.326;43.882;2022-08-11T15:57:55;6.07;;;2.15;;
70301;SDS011;57706;56.326;43.882;2022-08-11T16:00:42;3.88;;;2.28;;
70301;SDS011;57706;56.326;43.882;2022-08-11T16:03:28;8.15;;;2.05;;
70301;SDS011;57706;56.326;43.882;2022-08-11T16:06:15;3.65;;;1.75;;
70301;SDS011;57706;56.326;43.882;2022-08-11T16:08:42;6.78;;;2.00;;
70301;SDS011;57706;56.326;43.882;2022-08-11T16:11:10;4.40;;;1.70;;
70301;SDS011;57706;56.326;43.882;2022-08-11T16:13:37;11.10;;;2.00;;
70301;SDS011;57706;56.326;43.882;2022-08-11T16:16:07;9.65;;;1.92;;
70301;SDS011;57706;56.326;43.882;2022-08-11T16:18:50;11.18;;;1.98;;
70301;SDS011;57706;56.326;43.882;2022-08-11T16:21:29;6.03;;;1.60;;
70301;SDS011;57706;56.326;43.882;2022-08-11T16:23:58;2.63;;;1.70;;
70301;SDS011;57706;56.326;43.882;2022-08-11T16:26:26;5.05;;;2.17;;
70301;SDS011;57706;56.326;43.882;2022-08-11T16:28:54;6.28;;;1.88;;
70301;SDS011;57706;56.326;43.882;2022-08-11T16:31:23;6.10;;;2.38;;
70301;SDS011;57706;56.326;43.882;2022-08-11T16:33:50;7.78;;;2.55;;
70301;SDS011;57706;56.326;43.882;2022-08-11T16:36:18;7.28;;;2.55;;
70301;SDS011;57706;56.326;43.882;2022-08-11T16:39:06;9.45;;;1.60;;
70301;SDS011;57706;56.326;43.882;2022-08-11T16:41:34;12.10;;;2.50;;
70301;SDS011;57706;56.326;43.882;2022-08-11T16:44:20;10.48;;;2.95;;
70301;SDS011;57706;56.326;43.882;2022-08-11T16:47:25;12.25;;;2.47;;
70301;SDS011;57706;56.326;43.882;2022-08-11T16:49:52;17.60;;;2.83;;
70301;SDS011;57706;56.326;43.882;2022-08-11T16:52:21;6.10;;;2.20;;
70301;SDS011;57706;56.326;43.882;2022-08-11T16:54:47;8.23;;;2.70;;
70301;SDS011;57706;56.326;43.882;2022-08-11T16:57:14;10.13;;;2.85;;
70301;SDS011;57706;56.326;43.882;2022-08-11T17:00:05;10.27;;;2.90;;
70301;SDS011;57706;56.326;43.882;2022-08-11T17:02:36;10.38;;;2.88;;
70301;SDS011;57706;56.326;43.882;2022-08-11T17:05:25;7.10;;;2.60;;
70301;SDS011;57706;56.326;43.882;2022-08-11T17:08:10;8.35;;;2.92;;
70301;SDS011;57706;56.326;43.882;2022-08-11T17:10:57;12.40;;;2.88;;
70301;SDS011;57706;56.326;43.882;2022-08-11T17:14:00;27.95;;;3.70;;
70301;SDS011;57706;56.326;43.882;2022-08-11T17:16:37;18.10;;;4.00;;
70301;SDS011;57706;56.326;43.882;2022-08-11T17:19:06;12.10;;;3.33;;
70301;SDS011;57706;56.326;43.882;2022-08-11T17:21:36;12.75;;;3.70;;
70301;SDS011;57706;56.326;43.882;2022-08-11T17:24:25;15.10;;;4.10;;
70301;SDS011;57706;56.326;43.882;2022-08-11T17:26:52;24.95;;;4.35;;
70301;SDS011;57706;56.326;43.882;2022-08-11T17:29:28;18.77;;;4.50;;
70301;SDS011;57706;56.326;43.882;2022-08-11T17:32:00;20.27;;;4.00;;
70301;SDS011;57706;56.326;43.882;2022-08-11T17:34:46;13.38;;;3.85;;
70301;SDS011;57706;56.326;43.882;2022-08-11T17:37:33;17.15;;;4.78;;
70301;SDS011;57706;56.326;43.882;2022-08-11T17:40:04;15.70;;;4.07;;
70301;SDS011;57706;56.326;43.882;2022-08-11T17:42:33;14.98;;;4.90;;
70301;SDS011;57706;56.326;43.882;2022-08-11T17:45:19;16.63;;;4.47;;
70301;SDS011;57706;56.326;43.882;2022-08-11T17:48:26;17.58;;;5.22;;
70301;SDS011;57706;56.326;43.882;2022-08-11T17:51:03;16.48;;;5.10;;
70301;SDS011;57706;56.326;43.882;2022-08-11T17:53:33;23.92;;;5.50;;
70301;SDS011;57706;56.326;43.882;2022-08-11T17:56:23;18.38;;;5.10;;
70301;SDS011;57706;56.326;43.882;2022-08-11T17:59:08;25.60;;;5.32;;
70301;SDS011;57706;56.326;43.882;2022-08-11T18:01:53;20.88;;;5.90;;
70301;SDS011;57706;56.326;43.882;2022-08-11T18:04:42;19.52;;;4.78;;
70301;SDS011;57706;56.326;43.882;2022-08-11T18:07:12;23.67;;;5.40;;
70301;SDS011;57706;56.326;43.882;2022-08-11T18:09:58;18.98;;;4.75;;
70301;SDS011;57706;56.326;43.882;2022-08-11T18:12:44;17.67;;;4.65;;
70301;SDS011;57706;56.326;43.882;2022-08-11T18:15:30;21.88;;;5.50;;
70301;SDS011;57706;56.326;43.882;2022-08-11T18:18:15;20.45;;;5.78;;
70301;SDS011;57706;56.326;43.882;2022-08-11T18:21:00;29.25;;;6.40;;
70301;SDS011;57706;56.326;43.882;2022-08-11T18:23:44;23.65;;;6.40;;
70301;SDS011;57706;56.326;43.882;2022-08-11T18:26:32;32.13;;;6.88;;
70301;SDS011;57706;56.326;43.882;2022-08-11T18:29:16;31.95;;;7.07;;
70301;SDS011;57706;56.326;43.882;2022-08-11T18:32:03;29.52;;;6.28;;
70301;SDS011;57706;56.326;43.882;2022-08-11T18:34:48;27.88;;;7.60;;
70301;SDS011;57706;56.326;43.882;2022-08-11T18:37:34;25.75;;;7.38;;
70301;SDS011;57706;56.326;43.882;2022-08-11T18:40:23;25.60;;;7.78;;
70301;SDS011;57706;56.326;43.882;2022-08-11T18:43:10;27.10;;;7.85;;
70301;SDS011;57706;56.326;43.882;2022-08-11T18:45:58;31.63;;;10.52;;
70301;SDS011;57706;56.326;43.882;2022-08-11T18:48:46;25.73;;;8.18;;
70301;SDS011;57706;56.326;43.882;2022-08-11T18:51:35;25.67;;;8.55;;
70301;SDS011;57706;56.326;43.882;2022-08-11T18:54:21;30.30;;;9.68;;
70301;SDS011;57706;56.326;43.882;2022-08-11T18:57:26;25.77;;;10.00;;
70301;SDS011;57706;56.326;43.882;2022-08-11T19:00:10;39.55;;;11.82;;
70301;SDS011;57706;56.326;43.882;2022-08-11T19:02:56;30.33;;;11.98;;
70301;SDS011;57706;56.326;43.882;2022-08-11T19:05:43;28.75;;;10.15;;
70301;SDS011;57706;56.326;43.882;2022-08-11T19:08:30;36.25;;;11.68;;
70301;SDS011;57706;56.326;43.882;2022-08-11T19:11:20;33.50;;;14.18;;
70301;SDS011;57706;56.326;43.882;2022-08-11T19:14:07;34.90;;;14.40;;
70301;SDS011;57706;56.326;43.882;2022-08-11T19:16:53;38.42;;;14.75;;
70301;SDS011;57706;56.326;43.882;2022-08-11T19:19:39;36.97;;;15.57;;
70301;SDS011;57706;56.326;43.882;2022-08-11T19:22:24;32.28;;;15.95;;
70301;SDS011;57706;56.326;43.882;2022-08-11T19:25:12;36.40;;;16.67;;
70301;SDS011;57706;56.326;43.882;2022-08-11T19:27:58;34.80;;;16.13;;
70301;SDS011;57706;56.326;43.882;2022-08-11T19:30:43;38.90;;;15.57;;
70301;SDS011;57706;56.326;43.882;2022-08-11T19:33:29;29.60;;;15.40;;
70301;SDS011;57706;56.326;43.882;2022-08-11T19:36:14;55.10;;;15.80;;
70301;SDS011;57706;56.326;43.882;2022-08-11T19:39:18;45.00;;;15.77;;
70301;SDS011;57706;56.326;43.882;2022-08-11T19:42:07;54.70;;;16.67;;
70301;SDS011;57706;56.326;43.882;2022-08-11T19:44:53;36.22;;;15.65;;
70301;SDS011;57706;56.326;43.882;2022-08-11T19:47:39;38.60;;;15.90;;
70301;SDS011;57706;56.326;43.882;2022-08-11T19:50:25;32.80;;;16.02;;
70301;SDS011;57706;56.326;43.882;2022-08-11T19:53:10;41.25;;;15.90;;
70301;SDS011;57706;56.326;43.882;2022-08-11T19:56:14;33.45;;;15.93;;
70301;SDS011;57706;56.326;43.882;2022-08-11T19:58:59;27.65;;;14.10;;
70301;SDS011;57706;56.326;43.882;2022-08-11T20:01:45;53.25;;;28.00;;
70301;SDS011;57706;56.326;43.882;2022-08-11T20:04:48;37.67;;;15.60;;
70301;SDS011;57706;56.326;43.882;2022-08-11T20:07:32;36.08;;;17.08;;
70301;SDS011;57706;56.326;43.882;2022-08-11T20:10:19;32.53;;;16.48;;